createdAt,value
2022-08-10T00:02:29.166Z,14.12
2022-08-10T00:05:01.787Z,14.16
2022-08-10T00:07:35.603Z,14.21
2022-08-10T00:10:13.236Z,14.23
2022-08-10T00:12:53.793Z,14.22
2022-08-10T00:15:52.222Z,14.24
2022-08-10T00:18:35.354Z,14.27
2022-08-10T00:21:18.648Z,14.30
2022-08-10T00:23:56.176Z,14.30
2022-08-10T00:27:49.960Z,14.31
2022-08-10T00:29:28.060Z,14.30
2022-08-10T00:32:03.401Z,14.30
2022-08-10T00:34:42.386Z,14.28
2022-08-10T00:37:16.366Z,14.22
2022-08-10T00:39:47.448Z,14.20
2022-08-10T00:42:17.959Z,14.22
2022-08-10T00:44:54.165Z,14.19
2022-08-10T00:47:37.569Z,14.18
2022-08-10T00:50:13.612Z,14.18
2022-08-10T00:52:52.431Z,14.13
2022-08-10T00:55:24.470Z,13.98
2022-08-10T00:58:01.839Z,13.80
2022-08-10T01:00:35.391Z,13.66
2022-08-10T01:04:39.568Z,13.61
2022-08-10T01:06:50.811Z,13.59
2022-08-10T01:10:12.682Z,13.66
2022-08-10T01:13:05.852Z,13.68
2022-08-10T01:15:59.082Z,13.67
2022-08-10T01:18:58.830Z,13.66
2022-08-10T01:22:08.297Z,13.70
2022-08-10T01:25:19.640Z,13.73
2022-08-10T01:28:04.081Z,13.77
2022-08-10T01:30:37.564Z,13.79
2022-08-10T01:33:31.785Z,13.81
2022-08-10T01:36:21.207Z,13.75
2022-08-10T01:39:07.457Z,13.64
2022-08-10T01:41:46.981Z,13.55
2022-08-10T01:44:25.368Z,13.53
2022-08-10T01:48:02.625Z,13.49
2022-08-10T01:50:53.320Z,13.47
2022-08-10T01:54:13.210Z,13.46
2022-08-10T01:57:08.256Z,13.34
2022-08-10T02:00:02.169Z,13.21
2022-08-10T02:03:00.164Z,13.14
2022-08-10T02:05:48.640Z,13.16
2022-08-10T02:08:28.929Z,13.19
2022-08-10T02:11:08.754Z,13.21
2022-08-10T02:13:55.124Z,13.23
2022-08-10T02:16:33.265Z,13.25
2022-08-10T02:19:19.141Z,13.23
2022-08-10T02:22:36.901Z,13.23
2022-08-10T02:25:01.034Z,13.23
2022-08-10T02:28:04.851Z,13.21
2022-08-10T02:30:39.401Z,13.15
2022-08-10T02:33:29.635Z,13.07
2022-08-10T02:36:21.568Z,13.02
2022-08-10T02:39:08.442Z,12.98
2022-08-10T02:45:12.665Z,13.03
2022-08-10T02:45:30.790Z,13.06
2022-08-10T02:48:16.390Z,13.05
2022-08-10T02:51:02.833Z,12.98
2022-08-10T02:54:15.492Z,12.92
2022-08-10T02:57:29.385Z,12.92
2022-08-10T03:00:21.745Z,12.87
2022-08-10T03:03:18.796Z,12.84
2022-08-10T03:06:07.713Z,12.85
2022-08-10T03:08:58.951Z,12.77
2022-08-10T03:12:35.498Z,12.62
2022-08-10T03:15:19.767Z,12.52
2022-08-10T03:18:11.909Z,12.42
2022-08-10T03:21:27.821Z,12.33
2022-08-10T03:24:33.002Z,12.25
2022-08-10T03:27:28.743Z,12.20
2022-08-10T03:30:37.710Z,12.18
2022-08-10T03:33:27.745Z,12.17
2022-08-10T03:36:44.614Z,12.21
2022-08-10T03:39:55.692Z,12.27
2022-08-10T03:42:54.566Z,12.30
2022-08-10T03:46:23.378Z,12.35
2022-08-10T03:49:25.933Z,12.47
2022-08-10T03:52:19.429Z,12.51
2022-08-10T03:55:08.677Z,12.55
2022-08-10T03:58:00.788Z,12.59
2022-08-10T04:02:46.822Z,12.64
2022-08-10T04:04:56.429Z,12.71
2022-08-10T04:07:47.692Z,12.74
2022-08-10T04:10:51.794Z,12.79
2022-08-10T04:13:52.149Z,12.87
2022-08-10T04:16:32.958Z,12.96
2022-08-10T04:19:10.656Z,13.10
2022-08-10T04:22:07.793Z,13.21
2022-08-10T04:24:52.226Z,13.37
2022-08-10T04:27:29.469Z,13.51
2022-08-10T04:30:02.147Z,13.68
2022-08-10T04:32:38.821Z,13.81
2022-08-10T04:35:21.398Z,13.99
2022-08-10T04:37:58.716Z,14.15
2022-08-10T04:40:30.931Z,14.28
2022-08-10T04:43:11.938Z,14.44
2022-08-10T04:46:59.074Z,14.58
2022-08-10T04:49:56.484Z,14.80
2022-08-10T04:52:31.996Z,14.95
2022-08-10T04:55:06.450Z,15.07
2022-08-10T04:57:46.651Z,15.20
2022-08-10T05:00:18.979Z,15.32
2022-08-10T05:02:48.556Z,15.39
2022-08-10T05:05:20.858Z,15.43
2022-08-10T05:07:56.877Z,15.53
2022-08-10T05:10:29.898Z,15.66
2022-08-10T05:13:02.927Z,15.77
2022-08-10T05:15:33.669Z,15.84
2022-08-10T05:18:09.842Z,15.87
2022-08-10T05:20:47.325Z,15.98
2022-08-10T05:23:26.824Z,16.08
2022-08-10T05:25:58.131Z,16.18
2022-08-10T05:28:35.102Z,16.31
2022-08-10T05:31:12.691Z,16.42
2022-08-10T05:33:48.705Z,16.60
2022-08-10T05:36:18.593Z,16.73
2022-08-10T05:38:50.206Z,16.86
2022-08-10T05:41:21.110Z,16.95
2022-08-10T05:43:51.744Z,17.05
2022-08-10T05:47:12.854Z,17.14
2022-08-10T05:49:49.066Z,17.25
2022-08-10T05:52:20.948Z,17.33
2022-08-10T05:54:53.967Z,17.43
2022-08-10T05:57:24.926Z,17.55
2022-08-10T06:00:33.349Z,17.70
2022-08-10T06:03:03.566Z,17.86
2022-08-10T06:05:37.310Z,17.99
2022-08-10T06:08:32.668Z,18.11
2022-08-10T06:12:23.984Z,18.23
2022-08-10T06:14:18.346Z,18.31
2022-08-10T06:16:51.139Z,18.47
2022-08-10T06:19:22.503Z,18.60
2022-08-10T06:22:01.235Z,18.73
2022-08-10T06:24:32.233Z,18.88
2022-08-10T06:27:02.288Z,19.02
2022-08-10T06:29:34.496Z,19.15
2022-08-10T06:32:07.343Z,19.25
2022-08-10T06:34:42.463Z,19.39
2022-08-10T06:37:15.338Z,19.55
2022-08-10T06:39:47.978Z,19.69
2022-08-10T06:42:22.898Z,19.81
2022-08-10T06:45:02.909Z,19.89
2022-08-10T06:47:44.057Z,19.95
2022-08-10T06:50:45.433Z,20.08
2022-08-10T06:53:20.707Z,20.10
2022-08-10T06:55:58.752Z,20.18
2022-08-10T06:58:40.059Z,20.28
2022-08-10T07:01:15.131Z,20.47
2022-08-10T07:03:48.578Z,20.65
2022-08-10T07:06:20.354Z,20.86
2022-08-10T07:08:51.516Z,21.04
2022-08-10T07:11:23.270Z,21.19
2022-08-10T07:14:17.081Z,21.36
2022-08-10T07:16:49.348Z,21.47
2022-08-10T07:19:21.137Z,21.59
2022-08-10T07:21:58.021Z,21.73
2022-08-10T07:24:31.212Z,21.92
2022-08-10T07:27:06.142Z,22.59
2022-08-10T07:29:53.533Z,25.06
2022-08-10T07:32:26.125Z,28.26
2022-08-10T07:34:58.966Z,30.73
2022-08-10T07:37:30.952Z,32.89
2022-08-10T07:40:04.972Z,34.82
2022-08-10T07:42:45.678Z,36.35
2022-08-10T07:45:16.331Z,37.66
2022-08-10T07:47:54.268Z,38.67
2022-08-10T07:50:27.504Z,39.75
2022-08-10T07:53:04.817Z,40.45
2022-08-10T07:56:07.607Z,41.30
2022-08-10T07:58:35.305Z,41.75
2022-08-10T08:01:09.652Z,42.42
2022-08-10T08:03:43.015Z,43.08
2022-08-10T08:06:14.939Z,43.44
2022-08-10T08:09:01.075Z,43.64
2022-08-10T08:11:37.797Z,43.92
2022-08-10T08:14:10.376Z,44.16
2022-08-10T08:16:45.947Z,43.11
2022-08-10T08:19:28.031Z,43.67
2022-08-10T08:24:14.786Z,44.32
2022-08-10T08:24:56.976Z,44.04
2022-08-10T08:27:30.204Z,43.45
2022-08-10T08:30:00.664Z,44.27
2022-08-10T08:32:34.246Z,42.87
2022-08-10T08:35:16.707Z,42.21
2022-08-10T08:38:32.592Z,42.76
2022-08-10T08:41:12.424Z,43.52
2022-08-10T08:44:15.954Z,42.74
2022-08-10T08:48:04.134Z,40.98
2022-08-10T08:50:48.147Z,38.09
2022-08-10T08:54:01.039Z,36.39
2022-08-10T08:56:50.333Z,34.53
2022-08-10T08:59:53.405Z,33.19
2022-08-10T09:02:38.254Z,32.01
2022-08-10T09:05:58.772Z,31.09
2022-08-10T09:09:05.685Z,30.27
2022-08-10T09:11:54.644Z,29.50
2022-08-10T09:14:50.852Z,28.90
2022-08-10T09:17:47.949Z,28.82
2022-08-10T09:21:01.616Z,31.72
2022-08-10T09:24:12.180Z,35.03
2022-08-10T09:26:48.659Z,37.79
2022-08-10T09:29:26.950Z,39.57
2022-08-10T09:36:16.775Z,40.91
2022-08-10T09:36:25.758Z,42.14
2022-08-10T09:38:55.026Z,43.24
2022-08-10T09:41:52.748Z,43.64
2022-08-10T09:44:57.701Z,43.50
2022-08-10T09:48:02.455Z,43.40
2022-08-10T09:51:42.051Z,43.15
2022-08-10T09:54:19.106Z,40.14
2022-08-10T09:57:43.966Z,37.96
2022-08-10T10:00:13.419Z,36.78
2022-08-10T10:03:30.588Z,35.19
2022-08-10T10:06:44.486Z,33.73
2022-08-10T10:09:37.712Z,32.76
2022-08-10T10:12:19.603Z,31.95
2022-08-10T10:15:25.285Z,31.34
2022-08-10T10:18:12.807Z,31.67
2022-08-10T10:21:24.168Z,32.35
2022-08-10T10:24:42.765Z,31.92
2022-08-10T10:27:38.528Z,31.04
2022-08-10T10:30:10.762Z,30.33
2022-08-10T10:33:13.128Z,30.00
2022-08-10T10:35:56.613Z,29.56
2022-08-10T10:38:38.601Z,29.15
2022-08-10T10:41:28.372Z,28.76
2022-08-10T10:44:28.301Z,28.44
2022-08-10T10:47:09.831Z,28.84
2022-08-10T10:50:09.504Z,28.76
2022-08-10T10:52:43.754Z,28.98
2022-08-10T10:56:13.281Z,30.02
2022-08-10T10:58:53.370Z,29.97
2022-08-10T11:01:22.815Z,30.19
2022-08-10T11:04:13.898Z,30.91
2022-08-10T11:07:14.055Z,31.44
2022-08-10T12:01:06.976Z,32.95
2022-08-10T12:04:23.671Z,33.35
2022-08-10T12:07:03.698Z,33.53
2022-08-10T12:10:13.031Z,33.52
2022-08-10T12:13:18.343Z,32.98
2022-08-10T12:16:08.088Z,33.21
2022-08-10T12:19:07.326Z,33.45
2022-08-10T12:22:06.297Z,33.82
2022-08-10T12:24:57.716Z,34.24
2022-08-10T12:28:50.834Z,34.61
2022-08-10T12:35:37.900Z,35.13
2022-08-10T12:39:10.662Z,34.79
2022-08-10T12:42:38.808Z,33.96
2022-08-10T12:45:24.328Z,33.17
2022-08-10T12:48:08.186Z,32.77
2022-08-10T12:50:57.074Z,32.27
2022-08-10T12:54:01.432Z,32.03
2022-08-10T12:56:54.571Z,32.31
2022-08-10T13:00:01.820Z,32.62
2022-08-10T13:02:51.597Z,33.07
2022-08-10T13:05:54.802Z,33.45
2022-08-10T13:09:02.477Z,34.03
2022-08-10T13:12:37.274Z,34.49
2022-08-10T13:14:48.770Z,34.49
2022-08-10T13:17:32.710Z,34.53
2022-08-10T13:20:43.597Z,34.08
2022-08-10T13:23:22.729Z,34.12
2022-08-10T13:25:56.285Z,33.96
2022-08-10T13:28:43.174Z,33.43
2022-08-10T13:32:09.436Z,33.29
2022-08-10T13:34:42.185Z,33.09
2022-08-10T13:37:23.199Z,32.83
2022-08-10T13:40:01.438Z,32.80
2022-08-10T13:42:38.686Z,32.44
2022-08-10T13:45:21.065Z,32.56
2022-08-10T13:48:07.368Z,32.61
2022-08-10T13:50:39.434Z,32.93
2022-08-10T13:53:15.800Z,33.30
2022-08-10T13:55:57.704Z,33.42
2022-08-10T13:58:48.179Z,32.93
2022-08-10T14:01:41.768Z,32.32
2022-08-10T14:04:15.257Z,31.84
2022-08-10T14:06:58.570Z,31.47
2022-08-10T14:10:01.966Z,31.08
2022-08-10T14:42:01.571Z,29.49
2022-08-10T14:44:53.340Z,29.30
2022-08-10T14:48:09.616Z,28.98
2022-08-10T14:51:19.216Z,28.68
2022-08-10T15:04:02.863Z,28.28
2022-08-10T15:07:14.213Z,28.86
2022-08-10T15:14:05.536Z,29.20
2022-08-10T15:17:26.459Z,29.60
2022-08-10T15:26:32.926Z,30.69
2022-08-10T15:29:56.998Z,30.96
2022-08-10T15:33:57.557Z,31.19
2022-08-10T15:37:40.407Z,30.95
2022-08-10T15:40:57.652Z,30.55
2022-08-10T15:44:04.625Z,30.00
2022-08-10T15:47:26.865Z,29.47
2022-08-10T15:50:35.689Z,28.89
2022-08-10T15:53:49.890Z,28.26
2022-08-10T15:57:18.905Z,27.69
2022-08-10T16:00:26.810Z,27.23
2022-08-10T16:03:40.579Z,26.96
2022-08-10T16:06:59.188Z,26.78
2022-08-10T16:10:26.380Z,26.64
2022-08-10T16:13:59.759Z,26.51
2022-08-10T16:16:13.966Z,26.55
2022-08-10T16:19:25.726Z,26.77
2022-08-10T16:22:34.306Z,26.88
2022-08-10T16:25:18.346Z,27.00
2022-08-10T16:27:50.558Z,27.06
2022-08-10T16:30:22.206Z,26.91
2022-08-10T16:33:01.536Z,26.74
2022-08-10T16:35:40.552Z,26.55
2022-08-10T16:38:16.080Z,26.35
2022-08-10T16:40:57.015Z,26.25
2022-08-10T16:43:35.690Z,26.11
2022-08-10T16:47:26.720Z,25.86
2022-08-10T16:53:17.458Z,25.33
2022-08-10T16:56:19.302Z,25.24
2022-08-10T16:58:59.777Z,25.15
2022-08-10T17:02:10.465Z,25.02
2022-08-10T17:04:44.781Z,24.90
2022-08-10T17:07:18.278Z,24.84
2022-08-10T17:09:52.833Z,24.78
2022-08-10T17:12:31.887Z,24.71
2022-08-10T17:15:10.449Z,24.64
2022-08-10T17:17:51.956Z,24.57
2022-08-10T17:20:36.974Z,24.36
2022-08-10T17:23:10.088Z,24.26
2022-08-10T17:25:46.092Z,24.15
2022-08-10T17:28:34.509Z,24.15
2022-08-10T17:31:39.767Z,24.13
2022-08-10T17:34:14.451Z,24.14
2022-08-10T17:36:49.798Z,24.12
2022-08-10T17:39:24.027Z,24.06
2022-08-10T17:41:55.655Z,24.04
2022-08-10T17:44:26.416Z,24.02
2022-08-10T17:47:45.588Z,23.99
2022-08-10T17:50:36.394Z,23.91
2022-08-10T17:53:15.601Z,23.84
2022-08-10T17:55:47.907Z,23.76
2022-08-10T17:58:20.595Z,23.70
2022-08-10T18:00:57.479Z,23.59
2022-08-10T18:03:56.455Z,23.45
2022-08-10T18:06:28.685Z,23.39
2022-08-10T18:09:01.679Z,23.36
2022-08-10T18:11:35.425Z,23.30
2022-08-10T18:14:09.085Z,23.13
2022-08-10T18:16:41.972Z,22.96
2022-08-10T18:19:15.513Z,22.79
2022-08-10T18:21:49.362Z,22.67
2022-08-10T18:24:21.687Z,22.57
2022-08-10T18:26:54.464Z,22.39
2022-08-10T18:29:28.788Z,22.19
2022-08-10T18:32:03.473Z,22.05
2022-08-10T18:34:35.768Z,21.93
2022-08-10T18:37:09.085Z,21.83
2022-08-10T18:39:43.896Z,21.73
2022-08-10T18:42:21.936Z,21.65
2022-08-10T18:45:15.973Z,21.57
2022-08-10T18:48:11.209Z,21.43
2022-08-10T18:50:52.598Z,21.34
2022-08-10T18:53:36.307Z,21.30
2022-08-10T18:56:54.597Z,21.26
2022-08-10T19:00:08.245Z,21.20
2022-08-10T19:03:03.904Z,21.13
2022-08-10T19:05:44.321Z,21.07
2022-08-10T19:08:49.199Z,21.00
2022-08-10T19:12:02.405Z,20.88
2022-08-10T19:14:38.940Z,20.77
2022-08-10T19:17:20.607Z,20.75
2022-08-10T19:20:22.626Z,20.71
2022-08-10T19:23:29.737Z,20.64
2022-08-10T19:26:41.747Z,20.57
2022-08-10T19:30:11.077Z,20.52
2022-08-10T19:35:23.288Z,20.41
2022-08-10T19:38:16.660Z,20.39
2022-08-10T19:41:12.293Z,20.35
2022-08-10T19:44:13.376Z,20.30
2022-08-10T19:46:50.055Z,20.25
2022-08-10T19:49:43.459Z,20.19
2022-08-10T19:52:27.617Z,20.16
2022-08-10T19:55:15.167Z,20.13
2022-08-10T19:57:57.695Z,20.08
2022-08-10T20:00:42.123Z,20.05
2022-08-10T20:03:22.676Z,20.01
2022-08-10T20:06:29.656Z,19.98
2022-08-10T20:09:21.935Z,19.93
2022-08-10T20:11:59.487Z,19.91
2022-08-10T20:14:45.020Z,19.90
2022-08-10T20:17:25.988Z,19.88
2022-08-10T20:20:11.458Z,19.85
2022-08-10T20:22:54.921Z,19.83
2022-08-10T20:25:31.606Z,19.80
2022-08-10T20:28:12.639Z,19.74
2022-08-10T20:30:50.764Z,19.66
2022-08-10T20:33:24.260Z,19.60
2022-08-10T20:36:06.225Z,19.55
2022-08-10T20:38:56.711Z,19.43
2022-08-10T20:41:43.984Z,19.24
2022-08-10T20:44:38.007Z,19.12
2022-08-10T20:47:54.570Z,19.05
2022-08-10T20:50:38.662Z,19.05
2022-08-10T20:53:15.351Z,19.07
2022-08-10T20:56:10.148Z,19.00
2022-08-10T20:58:57.912Z,18.96
2022-08-10T21:02:06.626Z,18.92
2022-08-10T21:04:56.675Z,18.89
2022-08-10T21:08:01.581Z,18.85
2022-08-10T21:10:49.601Z,18.79
2022-08-10T21:13:28.275Z,18.78
2022-08-10T21:16:03.546Z,18.77
2022-08-10T21:19:09.724Z,18.74
2022-08-10T21:22:09.685Z,18.73
2022-08-10T21:24:52.340Z,18.67
2022-08-10T21:27:31.564Z,18.63
2022-08-10T21:30:13.766Z,18.59
2022-08-10T21:33:15.918Z,18.56
2022-08-10T21:35:49.621Z,18.51
2022-08-10T21:38:31.435Z,18.46
2022-08-10T21:41:56.634Z,18.43
2022-08-10T21:45:08.945Z,18.38
2022-08-10T21:52:53.788Z,18.22
2022-08-10T21:56:16.978Z,18.18
2022-08-10T21:59:34.973Z,18.16
2022-08-10T22:05:39.184Z,18.09
2022-08-10T22:08:30.992Z,18.04
2022-08-10T22:11:23.758Z,18.00
2022-08-10T22:14:18.133Z,17.95
2022-08-10T22:18:00.036Z,17.92
2022-08-10T22:20:28.810Z,17.87
2022-08-10T22:23:47.222Z,17.80
2022-08-10T22:27:15.801Z,17.74
2022-08-10T22:30:25.833Z,17.69
2022-08-10T22:33:42.766Z,17.61
2022-08-10T22:36:54.283Z,17.57
2022-08-10T22:40:12.488Z,17.52
2022-08-10T22:43:10.747Z,17.46
2022-08-10T22:46:12.039Z,17.41
2022-08-10T22:49:00.452Z,17.38
2022-08-10T22:51:44.047Z,17.36
2022-08-10T22:54:50.917Z,17.31
2022-08-10T22:57:42.798Z,17.25
2022-08-10T23:00:31.294Z,17.22
2022-08-10T23:03:22.560Z,17.20
2022-08-10T23:06:08.216Z,17.19
2022-08-10T23:08:49.799Z,17.16
2022-08-10T23:11:25.831Z,17.12
2022-08-10T23:14:04.907Z,17.05
2022-08-10T23:17:13.989Z,16.97
2022-08-10T23:20:02.234Z,16.89
2022-08-10T23:22:37.292Z,16.86
2022-08-10T23:25:13.281Z,16.84
2022-08-10T23:27:46.967Z,16.82
2022-08-10T23:30:19.184Z,16.81
2022-08-10T23:32:51.900Z,16.81
2022-08-10T23:36:31.841Z,16.81
2022-08-10T23:38:24.737Z,16.80
2022-08-10T23:41:01.530Z,16.78
2022-08-10T23:44:00.762Z,16.74
2022-08-10T23:46:39.843Z,16.74
2022-08-10T23:49:12.544Z,16.72
2022-08-10T23:51:55.590Z,16.71
2022-08-10T23:54:29.180Z,16.67
2022-08-10T23:57:01.971Z,16.64
2022-08-10T23:59:35.006Z,16.62
